Latest Weather Observations for Ernabella/Pukatja

IDS60801

Issued at 9:05 pm CST Friday 1 August 2014 (issued every 30 minutes, with the page automatically refreshed every 10 minutes)

About weather observations | Map of weather stations | Latest weather observations for SA | Other Formats
Station Details ID: 016097 Name: PUKATJA Lat: -26.26 Lon: 132.18 Height: 703.2 m
Data from the previous 72 hours. | See also: Recent months at Ernabella/Pukatja
Date/Time
CST
Temp
°C
App
Temp
°C
Dew
Point
Rel
Hum
%
Delta-T
°C
Wind Press
QNH
hPa
Press
MSL
hPa
Rain
since 9 am
mm
Dir
 
Spd
km/h
Gust
km/h
Spd
kts
Gust
kts
01/09:00pm 9.8 4.4 -1.0 47 4.4 ESE 17 26 9 14 1027.0 1026.1 0.0
01/08:30pm 10.2 4.8 -1.2 45 4.6 ESE 17 22 9 12 1026.8 - 0.0
01/08:00pm 10.2 5.6 -1.2 45 4.7 ESE 13 22 7 12 1026.6 - 0.0
01/07:30pm 10.1 5.8 -1.6 44 4.7 ESE 11 15 6 8 1026.4 - 0.0
01/07:00pm 10.7 6.1 -1.4 43 5.0 E 13 19 7 10 1025.9 - 0.0
01/06:30pm 11.5 6.8 -1.6 40 5.4 ESE 13 20 7 11 1025.7 - 0.0
01/06:00pm 12.4 6.6 -1.5 38 5.7 ESE 19 24 10 13 1025.3 1024.4 0.0
01/05:30pm 13.2 7.8 -1.5 36 6.2 ESE 17 22 9 12 1025.0 - 0.0
01/05:00pm 13.8 8.4 -1.0 36 6.3 ESE 17 24 9 13 1024.7 - 0.0
01/04:30pm 14.3 9.0 -0.9 35 6.5 ESE 17 24 9 13 1024.4 - 0.0
01/04:00pm 14.2 8.5 -0.6 36 6.4 SE 19 24 10 13 1024.3 - 0.0
01/03:30pm 14.3 9.1 -0.2 37 6.3 S 17 30 9 16 1024.4 - 0.0
01/03:00pm 14.4 9.1 -0.5 36 6.4 SE 17 24 9 13 1024.6 1023.6 0.0
01/02:30pm 13.7 8.9 0.0 39 6.0 ESE 15 20 8 11 1025.0 - 0.0
01/02:00pm 13.9 9.1 0.5 40 5.9 E 15 24 8 13 1025.3 - 0.0
01/01:30pm 12.9 8.6 1.0 44 5.3 ESE 13 24 7 13 1025.7 - 0.0
01/01:00pm 12.3 7.1 0.4 44 5.2 SE 17 24 9 13 1026.2 - 0.0
01/12:30pm 11.5 6.4 0.9 48 4.6 SE 17 22 9 12 1026.8 - 0.0
01/12:00pm 11.7 7.1 1.6 50 4.4 SE 15 26 8 14 1027.1 1026.2 0.0
01/11:30am 10.5 6.3 1.6 54 3.9 S 13 22 7 12 1027.1 - 0.0
01/11:00am 9.8 4.4 1.5 56 3.6 SSE 19 28 10 15 1027.3 - 0.0
01/10:30am 8.9 3.6 1.6 60 3.1 S 19 24 10 13 1027.2 - 0.0
01/10:00am 8.8 3.0 2.2 63 2.9 S 22 30 12 16 1027.0 - 0.0
01/09:30am 8.4 2.3 2.8 68 2.5 S 24 33 13 18 1026.6 - 0.0
01/09:00am 7.9 1.8 2.8 70 2.2 S 24 35 13 19 1026.2 1025.2 0.0
01/08:30am 7.4 1.3 2.9 73 2.0 S 24 37 13 20 1025.7 - 0.0
01/08:00am 6.9 1.2 3.0 76 1.7 S 22 32 12 17 1025.5 - 0.0
01/07:30am 7.0 1.1 3.8 80 1.4 SSW 24 35 13 19 1025.2 - 0.0
01/07:00am 7.4 2.4 3.8 78 1.6 S 19 26 10 14 1024.7 - 0.0
01/06:30am 7.6 3.4 4.0 78 1.6 S 15 20 8 11 1024.4 - 0.0
01/06:00am 7.5 2.4 3.9 78 1.6 S 20 30 11 16 1024.0 1023.0 0.0
01/05:30am 8.3 3.5 4.5 77 1.7 S 19 24 10 13 1023.7 - 0.0
01/05:00am 8.5 3.7 4.7 77 1.8 S 19 26 10 14 1023.3 - 0.0
01/04:30am 8.4 5.1 4.4 76 1.8 S 11 22 6 12 1023.1 - 0.0
01/04:00am 9.0 4.5 4.4 73 2.1 S 17 28 9 15 1023.3 - 0.0
01/03:30am 9.5 4.1 4.5 71 2.3 SSW 22 32 12 17 1023.3 - 0.0
01/03:00am 9.8 4.7 4.0 67 2.7 SSW 20 28 11 15 1022.9 1022.0 0.0
01/02:30am 10.6 3.2 4.1 64 3.0 SSE 32 41 17 22 1022.1 - 0.0
01/02:17am 10.8 4.2 4.3 64 3.0 SSE 28 50 15 27 1022.1 - 0.0
01/02:00am 11.1 5.6 3.9 61 3.3 SSE 22 35 12 19 1022.1 - 0.0
01/01:30am 11.8 6.7 3.1 55 4.0 SSW 19 33 10 18 1022.4 - 0.0
01/01:00am 11.7 7.2 1.9 51 4.4 SSW 15 28 8 15 1022.4 - 0.0
01/12:30am 10.0 6.0 0.3 51 4.1 W 11 19 6 10 1022.3 - 0.0
01/12:00am 11.6 7.2 0.4 46 4.8 WSW 13 19 7 10 1022.2 1021.2 0.0
 
Date/Time
CST
Temp
°C
App
Temp
°C
Dew
Point
Rel
Hum
%
Delta-T
°C
Wind Press
QNH
hPa
Press
MSL
hPa
Rain
since 9 am
mm
Dir
 
Spd
km/h
Gust
km/h
Spd
kts
Gust
kts
31/11:30pm 10.7 7.0 -0.1 47 4.6 WSW 9 13 5 7 1022.2 - 0.0
31/11:00pm 12.0 7.6 0.1 44 5.1 WSW 13 15 7 8 1022.0 - 0.0
31/10:30pm 12.7 8.2 -0.5 40 5.6 WSW 13 15 7 8 1021.9 - 0.0
31/10:00pm 13.4 8.4 -1.3 36 6.2 WSW 15 19 8 10 1021.7 - 0.0
31/09:30pm 13.5 8.8 -2.0 34 6.4 W 13 17 7 9 1021.2 - 0.0
31/09:00pm 15.5 10.5 -1.5 31 7.3 SW 15 22 8 12 1020.9 1020.5 0.0
31/08:30pm 17.1 10.3 -1.5 28 8.1 SSW 24 35 13 19 1020.5 - 0.0
31/08:00pm 16.1 10.8 -3.4 26 8.1 SW 15 19 8 10 1020.2 - 0.0
31/07:30pm 16.5 11.5 -4.1 24 8.4 WSW 13 19 7 10 1019.8 - 0.0
31/07:00pm 18.0 12.2 -4.6 21 9.3 SW 17 24 9 13 1019.2 - 0.0
31/06:30pm 19.2 12.5 -4.3 20 9.8 SW 22 30 12 16 1018.7 - 0.0
31/06:00pm 20.3 13.5 -4.8 18 10.5 SW 22 32 12 17 1018.7 1018.2 0.0
31/05:30pm 21.4 13.8 -5.4 16 11.2 SW 26 35 14 19 1018.5 - 0.0
31/05:00pm 22.0 15.0 -3.4 18 11.1 WSW 24 35 13 19 1018.3 - 0.0
31/04:30pm 22.5 15.9 -3.7 17 11.4 WSW 22 35 12 19 1018.2 - 0.0
31/04:00pm 22.7 15.0 -2.8 18 11.3 SW 28 41 15 22 1018.1 - 0.0
31/03:30pm 22.6 15.8 -2.2 19 11.1 WSW 24 39 13 21 1017.9 - 0.0
31/03:00pm 22.3 15.0 -3.1 18 11.2 WSW 26 41 14 22 1018.1 1017.6 0.0
31/02:30pm 22.8 15.2 -2.0 19 11.2 WSW 28 39 15 21 1018.3 - 0.0
31/02:00pm 22.4 14.8 -2.3 19 11.1 WSW 28 41 15 22 1018.7 - 0.0
31/01:30pm 22.8 14.4 -2.7 18 11.4 WSW 32 44 17 24 1019.1 - 0.0
31/01:00pm 21.9 15.5 -2.0 20 10.7 WSW 22 41 12 22 1019.6 - 0.0
31/12:30pm 21.9 16.0 -0.8 22 10.4 WSW 20 35 11 19 1020.1 - 0.0
31/12:00pm 20.9 14.2 -1.0 23 9.9 SW 24 32 13 17 1020.5 1020.0 0.0
31/11:30am 20.9 15.1 -0.4 24 9.8 SW 20 32 11 17 1020.9 - 0.0
31/11:00am 19.5 13.7 0.0 27 8.9 SW 20 28 11 15 1021.2 - 0.0
31/10:30am 18.6 12.1 0.2 29 8.4 SW 24 32 13 17 1021.6 - 0.0
31/10:00am 19.2 13.7 0.3 28 8.7 SW 19 26 10 14 1021.4 - 0.0
31/09:30am 18.3 14.2 0.0 29 8.3 WSW 11 15 6 8 1021.2 - 0.0
31/09:00am 16.1 12.8 -1.5 30 7.6 W 6 7 3 4 1021.0 1020.6 0.0
31/08:30am 11.4 7.8 -2.0 39 5.5 WSW 7 9 4 5 1020.9 - 0.0
31/08:00am 8.7 5.3 -2.0 47 4.2 W 6 11 3 6 1020.9 - 0.0
31/07:30am 6.9 3.2 -3.1 49 3.8 NW 7 9 4 5 1020.6 - 0.0
31/07:00am 6.7 3.0 -3.0 50 3.7 WSW 7 9 4 5 1020.4 - 0.0
31/06:30am 9.3 5.6 -2.9 42 4.8 W 7 13 4 7 1020.3 - 0.0
31/06:00am 9.0 5.9 -2.9 43 4.6 NNW 4 11 2 6 1019.9 1019.5 0.0
31/05:30am 10.1 6.4 -3.2 39 5.2 W 7 9 4 5 1019.9 - 0.0
31/05:00am 7.5 3.8 -3.1 47 4.0 W 7 13 4 7 1019.7 - 0.0
31/04:30am 8.5 4.4 -3.0 44 4.4 SW 9 11 5 6 1019.7 - 0.0
31/04:00am 9.3 6.2 -2.9 42 4.8 W 4 11 2 6 1019.9 - 0.0
31/03:30am 11.3 7.8 -2.8 37 5.6 W 6 9 3 5 1019.9 - 0.0
31/03:00am 9.7 7.2 -3.6 39 5.1 CALM 0 0 0 0 1019.8 1019.4 0.0
31/02:30am 11.4 7.9 -3.1 36 5.8 N 6 9 3 5 1020.2 - 0.0
31/02:00am 10.8 8.5 -2.6 39 5.3 CALM 0 0 0 0 1020.3 - 0.0
31/01:56am 11.3 8.9 -2.8 37 5.6 CALM 0 0 0 0 1020.4 - 0.0
31/01:30am 6.3 3.2 -2.8 52 3.4 ENE 4 6 2 3 1020.6 - 0.0
31/01:00am 8.4 6.0 -2.8 45 4.3 CALM 0 0 0 0 1020.6 - 0.0
31/12:30am 8.1 5.8 -2.2 48 4.0 CALM 0 0 0 0 1020.6 - 0.0
31/12:00am 7.9 5.6 -2.7 47 4.1 CALM 0 0 0 0 1020.7 1020.2 0.0
 
Date/Time
CST
Temp
°C
App
Temp
°C
Dew
Point
Rel
Hum
%
Delta-T
°C
Wind Press
QNH
hPa
Press
MSL
hPa
Rain
since 9 am
mm
Dir
 
Spd
km/h
Gust
km/h
Spd
kts
Gust
kts
30/11:30pm 7.8 5.5 -2.5 48 4.0 CALM 0 0 0 0 1020.9 - 0.0
30/11:00pm 8.9 6.5 -3.0 43 4.6 CALM 0 0 0 0 1020.9 - 0.0
30/10:30pm 10.3 8.0 -2.7 40 5.1 CALM 0 0 0 0 1021.2 - 0.0
30/10:00pm 10.1 7.7 -2.9 40 5.1 CALM 0 0 0 0 1021.3 - 0.0
30/09:30pm 12.5 10.1 -3.3 33 6.3 CALM 0 0 0 0 1021.4 - 0.0
30/09:00pm 11.2 8.8 -2.9 37 5.6 CALM 0 0 0 0 1021.4 1021.0 0.0
30/08:30pm 13.7 11.3 -3.5 30 6.9 CALM 0 0 0 0 1021.1 - 0.0
30/08:00pm 14.4 12.0 -3.4 29 7.2 CALM 0 0 0 0 1021.1 - 0.0
30/07:30pm 14.6 12.1 -3.7 28 7.4 CALM 0 0 0 0 1021.1 - 0.0
30/07:00pm 15.8 12.6 -3.1 27 7.8 N 4 6 2 3 1020.9 - 0.0
30/06:30pm 18.4 14.6 -3.7 22 9.3 NNW 7 9 4 5 1020.7 - 0.0
30/06:00pm 21.1 17.3 -4.1 18 10.7 NNW 7 9 4 5 1020.6 1020.1 0.0
30/05:30pm 22.5 18.5 -5.4 15 11.8 WNW 7 11 4 6 1020.6 - 0.0
30/05:00pm 22.6 18.0 -4.5 16 11.6 NNW 11 19 6 10 1020.5 - 0.0
30/04:30pm 22.7 17.7 -4.4 16 11.7 NNW 13 20 7 11 1020.4 - 0.0
30/04:00pm 23.0 19.2 -4.1 16 11.8 W 7 15 4 8 1020.5 - 0.0
30/03:30pm 23.2 18.1 -4.8 15 12.0 WNW 13 20 7 11 1020.6 - 0.0
30/03:00pm 23.4 18.8 -3.8 16 11.9 W 11 17 6 9 1021.0 1020.6 0.0
30/02:30pm 23.1 19.0 -3.3 17 11.7 NNW 9 15 5 8 1021.1 - 0.0
30/02:00pm 22.4 18.3 -3.1 18 11.2 W 9 17 5 9 1021.7 - 0.0
30/01:30pm 21.9 17.8 -2.7 19 10.9 N 9 33 5 18 1022.2 - 0.0
30/01:00pm 22.4 18.8 -2.3 19 11.1 NNE 7 20 4 11 1023.1 - 0.0
30/12:30pm 21.1 16.4 -2.0 21 10.3 NE 13 22 7 12 1023.8 - 0.0
30/12:00pm 20.8 16.2 -1.1 23 9.9 NNE 13 20 7 11 1024.4 1024.0 0.0
30/11:30am 20.0 14.7 -0.6 25 9.3 NE 17 24 9 13 1024.9 - 0.0
30/11:00am 19.1 14.7 0.2 28 8.6 ENE 13 19 7 10 1025.2 - 0.0
30/10:30am 18.4 13.7 1.0 31 8.0 ENE 15 20 8 11 1025.5 - 0.0
30/10:00am 17.6 13.9 2.4 36 7.2 ENE 11 15 6 8 1025.7 - 0.0
30/09:30am 16.3 13.4 2.7 40 6.4 ENE 7 11 4 6 1025.6 - 0.0
30/09:00am 14.6 13.1 3.1 46 5.4 CALM 0 6 0 3 1025.6 1025.2 0.0
30/08:30am 10.7 8.8 3.0 59 3.5 SSW 2 7 1 4 1025.5 - 0.0
30/08:00am 7.4 5.4 2.5 71 2.1 N 2 7 1 4 1025.2 - 0.0
30/07:30am 5.5 3.8 1.6 76 1.6 CALM 0 0 0 0 1025.0 - 0.0
30/07:00am 4.6 2.7 0.7 76 1.6 CALM 0 0 0 0 1024.7 - 0.0
30/06:30am 3.7 1.6 -0.5 74 1.6 CALM 0 0 0 0 1024.4 - 0.0
30/06:00am 4.4 2.4 0.2 74 1.7 CALM 0 0 0 0 1024.3 1023.9 0.0
30/05:30am 4.2 2.2 -0.2 73 1.7 CALM 0 0 0 0 1024.2 - 0.0
30/05:00am 4.2 2.1 -1.0 69 2.0 CALM 0 0 0 0 1024.1 - 0.0
30/04:30am 4.2 2.1 -0.8 70 1.9 CALM 0 0 0 0 1024.2 - 0.0
30/04:00am 5.0 2.9 -0.8 66 2.3 CALM 0 6 0 3 1024.3 - 0.0
30/03:30am 6.3 3.5 -0.2 63 2.6 SW 4 7 2 4 1024.3 - 0.0
30/03:00am 6.2 3.4 -0.3 63 2.6 NNE 4 7 2 4 1024.3 1023.9 0.0
30/02:30am 6.2 3.0 -0.7 61 2.7 NNE 6 7 3 4 1024.7 - 0.0
30/02:00am 6.6 4.5 -0.8 59 2.9 CALM 0 0 0 0 1025.0 - 0.0
30/01:30am 7.5 4.7 -0.7 56 3.3 WNW 4 6 2 3 1025.1 - 0.0
30/01:00am 8.7 6.6 -0.6 52 3.8 CALM 0 0 0 0 1025.2 - 0.0
30/12:30am 8.6 6.5 -0.7 52 3.8 CALM 0 0 0 0 1025.2 - 0.0
30/12:00am 10.6 8.1 -0.8 45 4.7 W 2 7 1 4 1025.2 1024.8 0.0
 
Date/Time
CST
Temp
°C
App
Temp
°C
Dew
Point
Rel
Hum
%
Delta-T
°C
Wind Press
QNH
hPa
Press
MSL
hPa
Rain
since 9 am
mm
Dir
 
Spd
km/h
Gust
km/h
Spd
kts
Gust
kts
29/11:30pm 11.1 7.9 -0.4 45 4.8 W 6 9 3 5 1025.3 - 0.0
29/11:00pm 11.1 8.3 -0.7 44 4.9 SW 4 6 2 3 1025.2 - 0.0
29/10:30pm 11.5 8.2 -0.9 42 5.2 NNE 6 7 3 4 1025.3 - 0.0
29/10:00pm 13.9 9.8 -0.5 37 6.2 SW 11 15 6 8 1025.2 - 0.0
29/09:30pm 16.3 12.1 -0.8 31 7.5 S 11 15 6 8 1025.2 - 0.0

Other Formats:

Comma delimited format used in spreadsheet applications
http://www.bom.gov.au/fwo/IDS60801/IDS60801.94474.axf

JavaScript Object Notation format (JSON) in row-major order
http://www.bom.gov.au/fwo/IDS60801/IDS60801.94474.json